Time;durP1;ratioP1;P1;durP2;ratioP2;P2;SDS_P1;SDS_P2;PMS_P1;PMS_P2;Temp;Humidity;BMP_temperature;BMP_pressure;BME280_temperature;BME280_humidity;BME280_pressure;Samples;Min_cycle;Max_cycle;Signal;HPM_P1;HPM_P2
2022/10/06 00:09:26;;;;;;;1.90;0.80;;;;;;;;;;20791134;28;20268;-71
2022/10/06 00:19:28;;;;;;;1.37;0.73;;;;;;;;;;20792143;28;20241;-71
2022/10/06 00:29:30;;;;;;;1.77;0.60;;;;;;;;;;20737498;28;20586;-70
2022/10/06 00:39:32;;;;;;;1.57;0.67;;;;;;;;;;20735286;28;20219;-70
2022/10/06 00:49:36;;;;;;;0.93;0.70;;;16.00;99.90;;;;;;20802783;28;20223;-71
2022/10/06 00:59:39;;;;;;;2.07;0.90;;;;;;;;;;20803203;28;20223;-71
2022/10/06 01:09:41;;;;;;;1.60;0.90;;;;;;;;;;20801731;28;20602;-71
2022/10/06 01:19:48;;;;;;;2.50;1.00;;;;;;;;;;20800830;28;20215;-71
2022/10/06 01:29:52;;;;;;;1.40;0.70;;;;;;;;;;20791615;28;20304;-71
2022/10/06 01:39:54;;;;;;;1.77;0.80;;;;;;;;;;20782777;28;20231;-70
2022/10/06 01:49:58;;;;;;;1.30;0.70;;;;;;;;;;20781941;28;20693;-71
2022/10/06 02:00:02;;;;;;;0.73;0.60;;;15.80;99.90;;;;;;20796889;28;20231;-70
2022/10/06 02:10:14;;;;;;;0.80;0.70;;;;;;;;;;20730120;28;20211;-71
2022/10/06 02:20:16;;;;;;;1.70;1.00;;;;;;;;;;20780436;28;20536;-71
2022/10/06 02:30:18;;;;;;;1.10;0.67;;;;;;;;;;20795448;28;20215;-71
2022/10/06 02:40:21;;;;;;;1.33;0.70;;;;;;;;;;20793591;28;20288;-71
2022/10/06 02:50:24;;;;;;;1.43;0.83;;;;;;;;;;20794024;28;20296;-72
2022/10/06 03:00:26;;;;;;;0.80;0.60;;;;;;;;;;20794377;28;20276;-71
2022/10/06 03:10:28;;;;;;;1.10;0.80;;;;;;;;;;20793454;28;20257;-71
2022/10/06 03:20:30;;;;;;;2.20;1.10;;;;;;;;;;20966660;22;20228;-73
2022/10/06 03:30:32;;;;;;;1.73;0.80;;;;;;;;;;21018823;28;20213;-71
2022/10/06 03:40:34;;;;;;;0.57;0.50;;;;;;;;;;21012397;28;20216;-72
2022/10/06 03:50:37;;;;;;;1.53;0.50;;;;;;;;;;20868927;28;20249;-72
2022/10/06 04:00:39;;;;;;;0.63;0.33;;;;;;;;;;20867359;28;20242;-72
2022/10/06 04:10:41;;;;;;;0.53;0.40;;;;;;;;;;20884337;28;20765;-72
2022/10/06 04:20:43;;;;;;;0.30;0.30;;;;;;;;;;20850556;28;20259;-73
2022/10/06 04:31:05;;;;;;;0.80;0.40;;;15.50;99.90;;;;;;20850295;28;20267;-73
2022/10/06 04:41:11;;;;;;;0.77;0.40;;;;;;;;;;20880918;28;20287;-73
2022/10/06 04:51:15;;;;;;;0.50;0.37;;;15.50;99.90;;;;;;20880992;28;20256;-73
2022/10/06 05:01:17;;;;;;;1.27;0.70;;;;;;;;;;20863585;28;20272;-73
2022/10/06 05:11:21;;;;;;;0.67;0.50;;;;;;;;;;20878310;28;20210;-73
2022/10/06 05:21:24;;;;;;;0.80;0.40;;;;;;;;;;20846619;28;20222;-73
2022/10/06 05:31:31;;;;;;;1.03;0.30;;;;;;;;;;20894171;28;20600;-71
2022/10/06 05:41:36;;;;;;;0.67;0.40;;;;;;;;;;20907591;28;20225;-70
2022/10/06 05:51:41;;;;;;;0.83;0.50;;;;;;;;;;20979848;28;20298;-70
2022/10/06 06:01:51;;;;;;;2.87;0.80;;;;;;;;;;20958708;28;20212;-71
2022/10/06 06:12:08;;;;;;;0.90;0.60;;;;;;;;;;20965873;28;20294;-70
2022/10/06 06:22:20;;;;;;;0.77;0.40;;;;;;;;;;20991839;28;20229;-70
2022/10/06 06:32:26;;;;;;;0.70;0.50;;;;;;;;;;20875601;28;20263;-70
2022/10/06 06:42:28;;;;;;;1.10;0.50;;;;;;;;;;21005674;28;20273;-71
2022/10/06 06:52:53;;;;;;;2.10;0.50;;;;;;;;;;21058387;28;20212;-70
2022/10/06 07:02:59;;;;;;;0.57;0.37;;;;;;;;;;21028576;28;20588;-70
2022/10/06 07:13:05;;;;;;;1.67;0.50;;;;;;;;;;20940680;28;20228;-73
2022/10/06 07:33:35;;;;;;;1.33;0.30;;;;;;;;;;20983170;28;20279;-70
2022/10/06 07:43:39;;;;;;;4.30;0.80;;;;;;;;;;20926390;28;20221;-71
2022/10/06 07:53:48;;;;;;;3.20;0.40;;;15.80;99.90;;;;;;20994672;28;20641;-71
2022/10/06 08:04:01;;;;;;;1.87;0.60;;;;;;;;;;20935983;28;20781;-70
2022/10/06 08:14:03;;;;;;;2.93;0.50;;;;;;;;;;20927176;28;20193;-70
2022/10/06 08:24:05;;;;;;;1.80;0.50;;;16.90;99.90;;;;;;20925264;28;20262;-70
2022/10/06 08:34:07;;;;;;;2.53;0.67;;;;;;;;;;20936253;28;20669;-70
2022/10/06 08:44:17;;;;;;;1.70;0.50;;;;;;;;;;20940715;28;20255;-70
2022/10/06 08:54:30;;;;;;;2.63;1.00;;;17.80;99.90;;;;;;20950609;28;20198;-70
2022/10/06 09:04:33;;;;;;;1.50;0.40;;;18.30;99.90;;;;;;20892914;28;20238;-70
2022/10/06 09:14:36;;;;;;;2.43;0.40;;;;;;;;;;20885287;28;20281;-70
2022/10/06 09:24:44;;;;;;;3.60;0.40;;;;;;;;;;20875495;23;20221;-70
2022/10/06 09:34:50;;;;;;;2.10;0.50;;;;;;;;;;20889345;28;20222;-71
2022/10/06 09:44:55;;;;;;;2.57;0.77;;;;;;;;;;20867069;28;20225;-71
2022/10/06 09:55:27;;;;;;;0.80;0.40;;;;;;;;;;20906308;28;20220;-71
2022/10/06 10:05:29;;;;;;;1.90;0.47;;;;;;;;;;20924848;28;20643;-71
2022/10/06 10:15:53;;;;;;;1.57;0.47;;;18.80;99.90;;;;;;20935190;28;20245;-72
2022/10/06 10:26:01;;;;;;;1.07;0.40;;;;;;;;;;20963749;28;20304;-71
2022/10/06 10:36:06;;;;;;;1.20;0.37;;;19.20;99.90;;;;;;20969736;28;20210;-71
2022/10/06 10:46:17;;;;;;;1.53;0.60;;;18.70;99.90;;;;;;20978904;28;20654;-71
2022/10/06 10:56:20;;;;;;;0.97;0.50;;;;;;;;;;20969263;28;20259;-71
2022/10/06 11:06:25;;;;;;;0.70;0.30;;;;;;;;;;20903164;28;20227;-72
2022/10/06 11:16:30;;;;;;;1.53;0.60;;;;;;;;;;20879504;28;20283;-71
2022/10/06 11:27:08;;;;;;;2.47;0.70;;;19.40;99.90;;;;;;20922541;28;20776;-72
2022/10/06 11:37:10;;;;;;;0.57;0.40;;;;;;;;;;20982854;28;20666;-72
2022/10/06 11:47:19;;;;;;;2.30;0.30;;;19.30;99.90;;;;;;20979922;28;20216;-72
2022/10/06 11:57:25;;;;;;;1.37;0.50;;;;;;;;;;20978708;28;20227;-72
2022/10/06 12:07:52;;;;;;;0.90;0.37;;;19.70;99.90;;;;;;20980611;28;20201;-71
2022/10/06 12:18:13;;;;;;;1.20;0.60;;;19.80;99.90;;;;;;20987618;28;20224;-72
2022/10/06 12:28:14;;;;;;;1.27;0.40;;;;;;;;;;20892857;28;20364;-70
2022/10/06 12:38:34;;;;;;;1.10;0.40;;;;;;;;;;20904571;28;20275;-70
2022/10/06 12:48:36;;;;;;;0.70;0.40;;;;;;;;;;20915768;28;20225;-71
2022/10/06 12:58:38;;;;;;;0.60;0.40;;;;;;;;;;20926168;28;20593;-71
2022/10/06 13:08:40;;;;;;;1.77;0.43;;;;;;;;;;20912621;28;20209;-70
2022/10/06 13:18:42;;;;;;;1.27;0.50;;;;;;;;;;20912516;28;20552;-70
2022/10/06 13:28:52;;;;;;;1.20;0.40;;;;;;;;;;20910149;28;20289;-70
2022/10/06 13:38:53;;;;;;;0.63;0.47;;;;;;;;;;20910348;28;20621;-70
2022/10/06 13:49:10;;;;;;;2.77;0.60;;;20.10;99.90;;;;;;20905834;28;20213;-72
2022/10/06 13:59:32;;;;;;;1.47;0.50;;;;;;;;;;20924046;28;20267;-72
2022/10/06 14:09:34;;;;;;;1.20;0.40;;;;;;;;;;20905361;28;20329;-72
2022/10/06 14:19:39;;;;;;;0.70;0.27;;;;;;;;;;20903008;28;20356;-72
2022/10/06 14:29:41;;;;;;;1.20;0.40;;;;;;;;;;20867667;28;20220;-72
2022/10/06 14:39:44;;;;;;;1.07;0.30;;;19.70;99.90;;;;;;20885922;28;20228;-72
2022/10/06 14:49:46;;;;;;;0.80;0.50;;;;;;;;;;20914111;28;20205;-72
2022/10/06 14:59:50;;;;;;;0.87;0.50;;;19.10;99.90;;;;;;20903467;28;20212;-72
2022/10/06 15:09:53;;;;;;;2.53;0.60;;;;;;;;;;20884348;28;20214;-72
2022/10/06 15:19:59;;;;;;;0.97;0.67;;;;;;;;;;20980643;22;20287;-65
2022/10/06 15:30:01;;;;;;;1.53;0.40;;;;;;;;;;20976396;28;20287;-65
2022/10/06 15:40:04;;;;;;;2.70;0.60;;;;;;;;;;20980430;28;20266;-65
2022/10/06 15:50:06;;;;;;;0.97;0.37;;;;;;;;;;20957358;28;20216;-65
2022/10/06 16:00:09;;;;;;;1.53;0.70;;;;;;;;;;20982188;28;20251;-65
2022/10/06 16:10:14;;;;;;;1.00;0.50;;;;;;;;;;20951725;28;20690;-69
2022/10/06 16:20:17;;;;;;;2.40;0.50;;;;;;;;;;20959396;28;20561;-68
2022/10/06 16:30:22;;;;;;;2.37;0.57;;;;;;;;;;20938333;28;20213;-68
2022/10/06 16:40:24;;;;;;;3.40;1.60;;;;;;;;;;20924908;28;20218;-68
2022/10/06 16:50:27;;;;;;;1.90;0.60;;;;;;;;;;20999993;28;20289;-71
2022/10/06 17:00:29;;;;;;;3.93;1.10;;;;;;;;;;21023396;28;20228;-69
2022/10/06 17:10:31;;;;;;;4.70;1.10;;;;;;;;;;21024720;28;20779;-69
2022/10/06 17:20:33;;;;;;;2.13;1.00;;;;;;;;;;21040101;28;20787;-68
2022/10/06 17:30:35;;;;;;;2.13;1.40;;;;;;;;;;20997447;28;20217;-69
2022/10/06 17:40:44;;;;;;;6.40;2.03;;;;;;;;;;20996167;28;20224;-69
2022/10/06 17:50:55;;;;;;;3.37;1.90;;;;;;;;;;21013005;28;20545;-69
2022/10/06 18:01:03;;;;;;;7.03;1.67;;;17.10;99.90;;;;;;20971400;28;20582;-71
2022/10/06 18:21:25;;;;;;;2.10;0.93;;;;;;;;;;21013120;28;20294;-69
2022/10/06 18:31:27;;;;;;;4.40;1.20;;;;;;;;;;21008188;28;20278;-71
2022/10/06 18:41:30;;;;;;;5.13;1.60;;;;;;;;;;21032417;28;20233;-71
2022/10/06 18:51:34;;;;;;;2.20;0.60;;;;;;;;;;21031558;28;20270;-71
2022/10/06 19:01:39;;;;;;;0.73;0.40;;;;;;;;;;21014946;28;20556;-68
2022/10/06 19:11:43;;;;;;;1.00;0.53;;;;;;;;;;21046409;28;20635;-69
2022/10/06 19:21:47;;;;;;;4.10;0.77;;;;;;;;;;21003643;28;20217;-68
2022/10/06 19:31:51;;;;;;;1.13;0.60;;;;;;;;;;20943765;28;20290;-68
2022/10/06 19:52:14;;;;;;;2.10;0.70;;;;;;;;;;20948941;28;20201;-68
2022/10/06 20:02:16;;;;;;;2.83;0.90;;;;;;;;;;20936586;28;20298;-69
2022/10/06 20:12:18;;;;;;;2.07;0.63;;;;;;;;;;20973485;28;20251;-69
2022/10/06 20:22:25;;;;;;;0.93;0.60;;;15.60;99.90;;;;;;20944293;28;20251;-69
2022/10/06 20:32:28;;;;;;;1.10;0.70;;;;;;;;;;20960654;28;20213;-69
2022/10/06 20:42:30;;;;;;;2.07;0.80;;;;;;;;;;20958211;28;20788;-69
2022/10/06 20:52:32;;;;;;;2.20;0.90;;;;;;;;;;20960459;28;20279;-69
2022/10/06 21:02:34;;;;;;;1.73;0.60;;;;;;;;;;20943690;28;20271;-68
2022/10/06 21:12:36;;;;;;;1.80;0.70;;;;;;;;;;20949190;28;20267;-69
2022/10/06 21:22:38;;;;;;;1.67;0.83;;;;;;;;;;21019767;22;20260;-79
2022/10/06 21:32:41;;;;;;;1.47;0.70;;;;;;;;;;20919922;28;20275;-76
2022/10/06 21:42:43;;;;;;;1.10;0.50;;;;;;;;;;20963862;28;20225;-76
2022/10/06 21:52:44;;;;;;;2.00;0.70;;;;;;;;;;20991025;28;20198;-74
2022/10/06 22:02:46;;;;;;;1.43;0.63;;;;;;;;;;20947978;28;20283;-74
2022/10/06 22:12:48;;;;;;;3.87;1.07;;;;;;;;;;21021756;28;20216;-73
2022/10/06 22:22:50;;;;;;;1.50;0.63;;;;;;;;;;21051475;28;20212;-73
2022/10/06 22:32:52;;;;;;;1.10;0.67;;;;;;;;;;21070926;28;20212;-75
2022/10/06 22:42:54;;;;;;;1.20;0.50;;;;;;;;;;21036766;28;20241;-73
2022/10/06 22:52:56;;;;;;;2.00;0.80;;;;;;;;;;21070367;28;20601;-74
2022/10/06 23:02:58;;;;;;;2.23;1.10;;;;;;;;;;21050195;28;20216;-74
2022/10/06 23:13:00;;;;;;;1.17;0.80;;;14.00;99.90;;;;;;21069162;28;20200;-74
2022/10/06 23:23:02;;;;;;;3.03;0.70;;;;;;;;;;21067730;28;20224;-73
2022/10/06 23:33:03;;;;;;;2.30;0.80;;;;;;;;;;21067763;28;20250;-74
2022/10/06 23:43:05;;;;;;;1.23;0.90;;;;;;;;;;21067848;28;20228;-74
2022/10/06 23:53:07;;;;;;;0.80;0.60;;;;;;;;;;21048996;28;20205;-74
